Time;durP1;ratioP1;P1;durP2;ratioP2;P2;SDS_P1;SDS_P2;PMS_P1;PMS_P2;Temp;Humidity;BMP_temperature;BMP_pressure;BME280_temperature;BME280_humidity;BME280_pressure;Samples;Min_cycle;Max_cycle;Signal;HPM_P1;HPM_P2
2022/03/19 00:01:07;;;;;;;115.42;55.70;;;;;;;-3.75;56.06;96735.13;1710183;83;21509;-52
2022/03/19 00:03:34;;;;;;;134.52;57.38;;;;;;;-3.72;56.28;96731.28;1708179;83;21050;-49
2022/03/19 00:06:03;;;;;;;95.57;47.43;;;;;;;-3.62;56.34;96732.38;1704184;83;21181;-50
2022/03/19 00:08:32;;;;;;;85.03;39.42;;;;;;;-3.52;56.25;96734.25;1716697;82;20873;-51
2022/03/19 00:11:02;;;;;;;94.07;43.02;;;;;;;-3.37;55.85;96732.50;1716462;82;20991;-51
2022/03/19 00:13:30;;;;;;;62.62;32.33;;;;;;;-3.31;55.81;96733.95;1716361;82;21006;-49
2022/03/19 00:15:59;;;;;;;68.00;33.02;;;;;;;-3.24;55.58;96731.59;1714173;82;20984;-50
2022/03/19 00:18:28;;;;;;;69.67;33.45;;;;;;;-3.20;55.36;96725.81;1716447;82;21056;-51
2022/03/19 00:20:57;;;;;;;76.47;33.13;;;;;;;-3.12;55.26;96722.91;1717685;82;20951;-50
2022/03/19 00:23:25;;;;;;;123.97;50.00;;;;;;;-3.03;54.89;96731.82;1715982;82;21215;-50
2022/03/19 00:25:52;;;;;;;111.70;48.87;;;;;;;-3.00;54.70;96728.50;1685065;83;21038;-49
2022/03/19 00:28:19;;;;;;;116.97;47.65;;;;;;;-3.06;54.76;96735.14;1719149;83;20996;-49
2022/03/19 00:30:49;;;;;;;121.10;50.03;;;;;;;-3.09;54.95;96725.78;1719334;82;21050;-50
2022/03/19 00:33:17;;;;;;;121.97;47.73;;;;;;;-3.08;55.10;96731.41;1717081;82;20963;-51
2022/03/19 00:35:45;;;;;;;95.62;44.40;;;;;;;-2.98;54.76;96723.59;1716102;83;21304;-50
2022/03/19 00:38:14;;;;;;;103.58;45.28;;;;;;;-2.93;54.55;96730.98;1711495;83;21061;-50
2022/03/19 00:40:42;;;;;;;90.75;41.50;;;;;;;-2.85;54.39;96728.84;1721328;82;21023;-51
2022/03/19 00:43:10;;;;;;;79.92;40.30;;;;;;;-2.81;54.20;96731.71;1720381;82;21023;-50
2022/03/19 00:45:37;;;;;;;101.12;53.75;;;;;;;-2.77;54.02;96730.77;1712545;82;21680;-50
2022/03/19 00:48:06;;;;;;;96.12;46.37;;;;;;;-2.93;53.81;96724.24;1714247;82;22356;-50
2022/03/19 00:50:33;;;;;;;68.60;35.43;;;;;;;-3.12;54.24;96736.37;1717922;82;21086;-51
2022/03/19 00:53:01;;;;;;;58.42;29.63;;;;;;;-3.27;54.21;96731.44;1712599;83;21454;-51
2022/03/19 00:55:28;;;;;;;95.00;42.08;;;;;;;-3.46;54.41;96737.04;1718018;82;21005;-51
2022/03/19 00:57:55;;;;;;;94.28;43.65;;;;;;;-3.62;54.76;96735.08;1729282;82;21018;-51
2022/03/19 01:00:26;;;;;;;101.38;47.95;;;;;;;-3.77;55.28;96737.34;1730149;82;21495;-50
2022/03/19 01:02:55;;;;;;;122.15;56.68;;;;;;;-3.89;55.92;96731.75;1734074;82;21002;-50
2022/03/19 01:05:23;;;;;;;102.72;46.05;;;;;;;-3.85;56.01;96739.44;1731169;82;21117;-51
2022/03/19 01:07:55;;;;;;;97.75;43.95;;;;;;;-3.87;55.83;96733.58;1722143;82;21017;-52
2022/03/19 01:10:26;;;;;;;92.15;43.60;;;;;;;-3.90;55.82;96738.23;1722751;82;21057;-50
2022/03/19 01:12:56;;;;;;;91.87;43.13;;;;;;;-3.87;56.25;96730.89;1736147;82;20990;-51
2022/03/19 01:15:25;;;;;;;97.75;45.05;;;;;;;-3.71;56.37;96734.22;1723373;82;20988;-50
2022/03/19 01:17:54;;;;;;;91.37;40.88;;;;;;;-3.56;56.12;96733.83;1739405;81;21058;-50
2022/03/19 01:20:23;;;;;;;89.22;43.28;;;;;;;-3.50;55.93;96729.89;1721685;82;21058;-49
2022/03/19 01:22:52;;;;;;;87.42;42.30;;;;;;;-3.50;55.88;96719.94;1723264;82;21440;-50
2022/03/19 01:25:19;;;;;;;88.52;42.50;;;;;;;-3.47;55.92;96730.08;1720515;82;21161;-51
2022/03/19 01:27:48;;;;;;;78.62;36.65;;;;;;;-3.43;55.87;96728.34;1733305;82;21538;-50
2022/03/19 01:30:17;;;;;;;110.65;46.50;;;;;;;-3.40;55.77;96726.38;1733913;82;21510;-50
2022/03/19 01:32:45;;;;;;;104.03;48.80;;;;;;;-3.52;55.78;96727.53;1721296;82;21025;-49
2022/03/19 01:35:15;;;;;;;113.00;52.50;;;;;;;-3.72;56.19;96722.45;1727412;82;21061;-51
2022/03/19 01:37:44;;;;;;;66.35;34.48;;;;;;;-3.87;56.76;96731.67;1722737;82;21220;-51
2022/03/19 01:40:12;;;;;;;50.83;26.65;;;;;;;-3.94;56.53;96734.02;1724532;82;21051;-51
2022/03/19 01:42:45;;;;;;;42.13;24.15;;;;;;;-3.96;56.46;96728.69;1735248;82;21042;-51
2022/03/19 01:45:15;;;;;;;47.03;25.15;;;;;;;-4.00;56.21;96725.03;1735194;82;21064;-51
2022/03/19 01:47:42;;;;;;;46.25;25.23;;;;;;;-4.11;56.26;96730.40;1718574;82;21053;-49
2022/03/19 01:50:11;;;;;;;44.45;25.95;;;;;;;-4.23;56.53;96732.86;1733250;82;21331;-51
2022/03/19 01:52:40;;;;;;;49.80;26.73;;;;;;;-4.30;56.77;96721.73;1724328;82;20963;-49
2022/03/19 01:55:10;;;;;;;66.40;31.93;;;;;;;-4.36;56.94;96722.95;1703993;82;21058;-50
2022/03/19 01:57:43;;;;;;;78.83;39.73;;;;;;;-4.37;57.22;96718.69;1711103;82;21006;-50
2022/03/19 02:00:16;;;;;;;98.33;49.13;;;;;;;-4.34;57.68;96718.07;1728962;81;21431;-50
2022/03/19 02:02:46;;;;;;;77.90;39.08;;;;;;;-4.34;57.27;96720.77;1723543;82;21296;-51
2022/03/19 02:05:16;;;;;;;64.67;33.63;;;;;;;-4.45;57.40;96716.74;1728102;82;21494;-50
2022/03/19 02:07:46;;;;;;;59.48;28.42;;;;;;;-4.40;57.65;96717.95;1727581;81;21042;-51
2022/03/19 02:10:14;;;;;;;53.05;28.35;;;;;;;-4.27;57.61;96710.41;1729463;82;21073;-50
2022/03/19 02:12:44;;;;;;;51.95;28.90;;;;;;;-4.20;57.24;96715.56;1724339;82;21013;-51
2022/03/19 02:15:13;;;;;;;56.58;28.10;;;;;;;-4.19;57.10;96714.49;1730574;82;21258;-50
2022/03/19 02:17:41;;;;;;;53.52;28.40;;;;;;;-4.18;56.84;96716.08;1727564;82;21007;-51
2022/03/19 02:20:11;;;;;;;60.38;29.70;;;;;;;-4.14;56.85;96712.21;1727292;82;21090;-51
2022/03/19 02:22:39;;;;;;;60.55;30.75;;;;;;;-4.12;56.75;96707.32;1724851;82;21019;-49
2022/03/19 02:27:56;;;;;;;53.23;29.77;;;;;;;-4.19;56.64;96715.84;1722811;82;21193;-50
2022/03/19 02:30:24;;;;;;;63.83;30.02;;;;;;;-4.21;56.86;96713.20;1725485;81;21630;-50
2022/03/19 02:32:53;;;;;;;58.78;30.30;;;;;;;-4.20;56.80;96713.44;1722340;82;21070;-51
2022/03/19 02:35:20;;;;;;;64.60;29.27;;;;;;;-4.18;56.48;96708.02;1724753;82;20964;-50
2022/03/19 02:37:49;;;;;;;65.00;33.13;;;;;;;-4.22;56.44;96715.08;1729092;82;21010;-50
2022/03/19 02:40:20;;;;;;;65.05;33.80;;;;;;;-4.22;56.48;96719.11;1718441;82;21080;-51
2022/03/19 02:42:54;;;;;;;68.72;33.80;;;;;;;-4.21;56.39;96709.17;1735562;82;20983;-51
2022/03/19 02:45:22;;;;;;;66.85;34.67;;;;;;;-4.23;56.07;96706.77;1732071;82;20993;-51
2022/03/19 02:47:59;;;;;;;62.33;30.15;;;;;;;-4.36;56.04;96706.84;1727744;82;21428;-51
2022/03/19 02:50:36;;;;;;;52.62;26.40;;;;;;;-4.52;56.26;96704.27;1732828;82;21014;-50
2022/03/19 02:53:09;;;;;;;48.45;26.45;;;;;;;-4.74;56.24;96704.24;1732256;82;22045;-48
2022/03/19 02:55:38;;;;;;;50.60;25.62;;;;;;;-4.92;56.71;96713.23;1715204;82;21042;-51
2022/03/19 02:58:06;;;;;;;56.88;29.37;;;;;;;-4.90;57.21;96709.70;1719822;82;21416;-53
2022/03/19 03:00:36;;;;;;;53.60;28.75;;;;;;;-4.87;57.45;96713.92;1720912;82;21069;-52
2022/03/19 03:03:04;;;;;;;54.53;28.52;;;;;;;-4.79;57.49;96711.86;1718165;82;21635;-51
2022/03/19 03:05:34;;;;;;;54.93;27.93;;;;;;;-4.71;57.32;96710.34;1725444;83;21031;-51
2022/03/19 03:08:03;;;;;;;48.40;24.63;;;;;;;-4.76;57.01;96716.61;1723910;82;21111;-49
2022/03/19 03:10:30;;;;;;;41.45;23.45;;;;;;;-4.74;56.71;96721.69;1719886;82;20982;-50
2022/03/19 03:12:59;;;;;;;52.85;28.83;;;;;;;-4.85;56.58;96727.02;1728713;82;20964;-50
2022/03/19 03:15:26;;;;;;;49.25;25.85;;;;;;;-5.00;56.57;96732.73;1719730;82;20979;-50
2022/03/19 03:17:54;;;;;;;53.08;27.13;;;;;;;-5.18;56.90;96730.97;1728776;82;22086;-51
2022/03/19 03:20:23;;;;;;;52.25;29.40;;;;;;;-5.25;57.42;96726.53;1727389;82;21019;-51
2022/03/19 03:22:51;;;;;;;51.60;29.80;;;;;;;-5.19;57.64;96724.80;1721417;82;21094;-49
2022/03/19 03:25:21;;;;;;;59.15;31.87;;;;;;;-5.14;57.82;96731.39;1701149;83;21528;-50
2022/03/19 03:27:48;;;;;;;58.05;29.85;;;;;;;-5.09;57.92;96736.67;1700813;83;21077;-50
2022/03/19 03:30:18;;;;;;;61.77;31.33;;;;;;;-4.99;58.07;96736.45;1698853;83;21245;-50
2022/03/19 03:32:47;;;;;;;50.88;29.25;;;;;;;-4.85;57.87;96733.73;1701226;84;21498;-52
2022/03/19 03:35:15;;;;;;;63.05;32.48;;;;;;;-4.73;57.81;96732.67;1729614;81;21067;-50
2022/03/19 03:37:43;;;;;;;85.77;43.55;;;;;;;-4.63;57.42;96722.50;1731985;82;21025;-51
2022/03/19 03:40:12;;;;;;;105.30;48.55;;;;;;;-4.56;57.41;96732.30;1722116;82;21053;-51
2022/03/19 03:42:41;;;;;;;95.35;42.53;;;;;;;-4.52;57.25;96737.83;1722348;82;21000;-51
2022/03/19 03:45:10;;;;;;;60.23;35.05;;;;;;;-4.48;56.83;96732.09;1722911;82;20993;-50
2022/03/19 03:47:38;;;;;;;52.27;28.92;;;;;;;-4.65;56.50;96735.44;1722085;82;21013;-50
2022/03/19 03:50:09;;;;;;;91.20;45.23;;;;;;;-4.86;56.41;96729.46;1722715;82;21009;-48
2022/03/19 03:52:38;;;;;;;57.95;31.85;;;;;;;-5.01;57.07;96729.81;1728748;82;21431;-49
2022/03/19 03:55:08;;;;;;;59.27;33.33;;;;;;;-5.01;57.15;96733.27;1704367;82;21430;-49
2022/03/19 03:57:36;;;;;;;89.60;51.45;;;;;;;-5.00;57.54;96730.84;1700672;83;20967;-49
2022/03/19 04:00:05;;;;;;;87.00;47.03;;;;;;;-4.91;57.88;96730.92;1700093;84;21204;-51
2022/03/19 04:02:38;;;;;;;88.37;50.85;;;;;;;-4.83;57.62;96737.72;1701239;84;21009;-50
2022/03/19 04:05:08;;;;;;;87.97;50.70;;;;;;;-4.79;57.60;96738.70;1700793;83;21046;-49
2022/03/19 04:07:37;;;;;;;82.65;45.03;;;;;;;-4.76;57.41;96739.99;1699965;84;21053;-50
2022/03/19 04:10:06;;;;;;;72.75;40.92;;;;;;;-4.73;57.57;96751.47;1701587;84;20973;-50
2022/03/19 04:12:36;;;;;;;58.90;33.48;;;;;;;-4.72;57.40;96749.03;1701484;84;21068;-50
2022/03/19 04:15:06;;;;;;;64.70;34.27;;;;;;;-4.77;57.23;96749.14;1698725;84;21010;-51
2022/03/19 04:17:33;;;;;;;42.53;24.55;;;;;;;-4.86;57.25;96745.56;1698996;83;21694;-51
2022/03/19 04:20:03;;;;;;;58.73;30.27;;;;;;;-4.93;57.21;96749.99;1699090;83;21759;-50
2022/03/19 04:22:38;;;;;;;38.10;22.00;;;;;;;-5.06;57.21;96750.02;1699261;83;21581;-50
2022/03/19 04:25:14;;;;;;;33.53;21.27;;;;;;;-5.21;57.33;96752.47;1700554;82;21033;-51
2022/03/19 04:27:43;;;;;;;38.53;21.48;;;;;;;-5.36;57.68;96754.66;1699001;83;21027;-50
2022/03/19 04:30:12;;;;;;;49.58;26.68;;;;;;;-5.41;57.79;96760.10;1699110;83;21247;-50
2022/03/19 04:32:46;;;;;;;58.17;30.70;;;;;;;-5.54;57.83;96764.92;1699160;83;21929;-50
2022/03/19 04:38:03;;;;;;;53.90;28.77;;;;;;;-5.79;57.94;96761.94;1698716;84;21025;-50
2022/03/19 04:40:32;;;;;;;59.10;29.63;;;;;;;-5.96;58.77;96769.17;1699380;84;20978;-50
2022/03/19 04:42:59;;;;;;;59.83;30.17;;;;;;;-5.93;58.74;96760.54;1699184;84;20974;-49
2022/03/19 04:45:26;;;;;;;56.85;30.65;;;;;;;-5.91;58.90;96760.26;1700428;83;21151;-51
2022/03/19 04:47:54;;;;;;;50.20;29.02;;;;;;;-5.90;59.01;96766.67;1699878;83;21049;-50
2022/03/19 04:50:21;;;;;;;64.75;35.52;;;;;;;-5.90;59.08;96768.55;1700354;84;20977;-50
2022/03/19 04:52:50;;;;;;;80.97;44.08;;;;;;;-5.85;59.53;96769.79;1699264;84;21430;-50
2022/03/19 04:55:17;;;;;;;77.67;41.37;;;;;;;-5.69;59.81;96773.77;1700377;82;21127;-50
2022/03/19 04:57:47;;;;;;;69.30;37.25;;;;;;;-5.51;59.51;96772.38;1700484;84;21178;-51
2022/03/19 05:00:17;;;;;;;67.82;34.95;;;;;;;-5.45;59.20;96779.22;1702012;83;21480;-50
2022/03/19 05:02:46;;;;;;;68.72;37.08;;;;;;;-5.42;59.27;96781.30;1700047;83;20978;-50
2022/03/19 05:05:15;;;;;;;98.80;47.40;;;;;;;-5.32;59.06;96793.20;1701157;84;20978;-50
2022/03/19 05:07:42;;;;;;;73.70;38.65;;;;;;;-5.26;58.70;96791.47;1699796;84;21454;-50
2022/03/19 05:12:57;;;;;;;75.87;37.55;;;;;;;-5.46;58.50;96793.72;1701235;84;21065;-49
2022/03/19 05:15:25;;;;;;;113.77;39.85;;;;;;;-5.60;58.81;96793.45;1700890;84;21285;-50
2022/03/19 05:17:53;;;;;;;138.72;72.15;;;;;;;-5.70;59.20;96786.39;1698581;84;21096;-50
2022/03/19 05:20:21;;;;;;;115.67;57.85;;;;;;;-5.71;59.52;96799.55;1699819;83;21013;-50
2022/03/19 05:22:50;;;;;;;82.88;40.70;;;;;;;-5.70;59.68;96806.49;1699695;83;20971;-49
2022/03/19 05:25:19;;;;;;;78.22;40.23;;;;;;;-5.74;59.86;96808.70;1700023;83;21451;-51
2022/03/19 05:27:46;;;;;;;95.00;44.77;;;;;;;-5.74;60.04;96808.17;1700289;83;21148;-50
2022/03/19 05:30:14;;;;;;;89.42;42.48;;;;;;;-5.63;60.41;96808.80;1700724;83;21014;-49
2022/03/19 05:32:43;;;;;;;98.67;43.30;;;;;;;-5.48;60.52;96811.18;1699011;84;21069;-51
2022/03/19 05:35:12;;;;;;;98.30;44.23;;;;;;;-5.23;60.35;96812.86;1699610;84;21001;-51
2022/03/19 05:37:42;;;;;;;99.67;40.45;;;;;;;-5.16;59.75;96811.94;1698710;82;20989;-51
2022/03/19 05:40:12;;;;;;;80.15;40.98;;;;;;;-5.16;59.54;96809.25;1701795;83;21116;-49
2022/03/19 05:42:39;;;;;;;105.25;51.95;;;;;;;-5.20;59.57;96812.26;1700131;84;21084;-50
2022/03/19 05:45:10;;;;;;;98.05;43.00;;;;;;;-5.18;59.92;96810.88;1700770;84;21073;-52
2022/03/19 05:47:39;;;;;;;91.45;43.17;;;;;;;-5.06;59.66;96813.06;1700863;83;26945;-51
2022/03/19 05:50:09;;;;;;;93.55;48.83;;;;;;;-4.96;59.68;96815.56;1700963;83;21247;-51
2022/03/19 05:52:38;;;;;;;84.83;46.00;;;;;;;-4.76;59.98;96816.49;1698303;83;21093;-51
2022/03/19 05:55:08;;;;;;;76.75;41.45;;;;;;;-4.56;59.53;96817.41;1701307;82;21053;-52
2022/03/19 05:57:37;;;;;;;90.80;46.48;;;;;;;-4.38;58.74;96811.11;1699730;84;21046;-52
2022/03/19 06:00:07;;;;;;;77.62;39.48;;;;;;;-4.26;58.13;96814.07;1701241;83;21150;-52
2022/03/19 06:02:42;;;;;;;62.48;29.20;;;;;;;-4.09;57.88;96806.16;1701569;83;20962;-51
2022/03/19 06:05:10;;;;;;;46.63;25.88;;;;;;;-3.88;56.95;96807.27;1702122;84;21112;-51
2022/03/19 06:07:39;;;;;;;59.55;30.52;;;;;;;-3.86;55.98;96807.19;1699422;82;20990;-51
2022/03/19 06:10:08;;;;;;;64.92;32.10;;;;;;;-3.94;55.41;96805.77;1700841;83;21006;-51
2022/03/19 06:12:37;;;;;;;69.35;33.70;;;;;;;-4.07;55.49;96802.05;1701928;84;20997;-50
2022/03/19 06:15:07;;;;;;;72.67;36.55;;;;;;;-4.07;55.76;96805.30;1699082;84;21026;-51
2022/03/19 06:17:36;;;;;;;61.33;34.15;;;;;;;-4.01;55.61;96813.48;1701543;83;21609;-51
2022/03/19 06:20:04;;;;;;;89.25;37.63;;;;;;;-4.02;55.64;96807.30;1699178;83;21651;-50
2022/03/19 06:22:33;;;;;;;79.80;42.67;;;;;;;-3.96;55.64;96809.32;1699234;84;21001;-51
2022/03/19 06:25:01;;;;;;;86.72;39.75;;;;;;;-3.86;55.72;96806.41;1700635;83;21414;-50
2022/03/19 06:27:30;;;;;;;74.85;37.03;;;;;;;-3.60;55.68;96812.73;1701972;83;20971;-50
2022/03/19 06:29:57;;;;;;;79.87;38.88;;;;;;;-3.35;55.13;96812.36;1691025;83;21478;-51
2022/03/19 06:32:25;;;;;;;67.32;36.08;;;;;;;-3.23;54.51;96811.20;1701979;84;21026;-50
2022/03/19 06:34:53;;;;;;;72.22;32.67;;;;;;;-3.14;54.42;96813.41;1700749;82;21049;-51
2022/03/19 06:37:20;;;;;;;87.72;31.30;;;;;;;-2.97;54.09;96812.13;1699413;84;21153;-58
2022/03/19 06:39:53;;;;;;;62.48;31.17;;;;;;;-2.79;53.27;96817.82;1700824;82;20934;-50
2022/03/19 06:42:20;;;;;;;82.57;39.03;;;;;;;-2.74;52.72;96810.94;1711121;83;21184;-51
2022/03/19 06:44:49;;;;;;;72.22;35.15;;;;;;;-2.60;52.89;96812.97;1717927;82;21039;-50
2022/03/19 06:47:17;;;;;;;63.85;33.53;;;;;;;-2.48;52.52;96815.05;1723041;83;21015;-51
2022/03/19 06:49:46;;;;;;;92.08;43.20;;;;;;;-2.37;52.21;96810.39;1723848;82;21008;-51
2022/03/19 06:52:14;;;;;;;83.12;38.67;;;;;;;-2.20;52.02;96813.11;1719407;82;21624;-51
2022/03/19 06:54:42;;;;;;;54.33;29.92;;;;;;;-2.03;52.23;96815.82;1702266;82;21378;-53
2022/03/19 06:57:10;;;;;;;49.95;26.52;;;;;;;-1.84;51.37;96818.19;1705735;81;21135;-50
2022/03/19 06:59:38;;;;;;;55.92;30.72;;;;;;;-1.77;51.10;96817.95;1702630;82;21090;-51
2022/03/19 07:02:06;;;;;;;52.67;28.57;;;;;;;-1.73;50.67;96816.22;1707060;83;22142;-50
2022/03/19 07:04:33;;;;;;;60.20;28.45;;;;;;;-1.68;50.01;96818.75;1703161;82;21056;-51
2022/03/19 07:07:01;;;;;;;44.05;26.93;;;;;;;-1.65;50.09;96808.66;1708811;82;21066;-50
2022/03/19 07:09:28;;;;;;;36.93;22.48;;;;;;;-1.61;49.75;96813.66;1699819;82;21011;-52
2022/03/19 07:11:56;;;;;;;53.80;25.37;;;;;;;-1.59;49.26;96817.63;1721130;81;20975;-50
2022/03/19 07:14:23;;;;;;;49.42;21.97;;;;;;;-1.46;49.11;96810.46;1716307;82;21134;-52
2022/03/19 07:16:51;;;;;;;40.50;22.48;;;;;;;-1.26;48.51;96803.84;1702170;82;21117;-50
2022/03/19 07:19:19;;;;;;;46.15;24.10;;;;;;;-1.18;48.39;96804.93;1701699;82;21020;-52
2022/03/19 07:21:47;;;;;;;40.43;23.12;;;;;;;-1.16;48.04;96805.40;1717515;82;21018;-51
2022/03/19 07:24:15;;;;;;;68.67;27.58;;;;;;;-1.17;48.00;96798.41;1711465;83;21143;-50
2022/03/19 07:26:43;;;;;;;55.45;27.73;;;;;;;-1.15;47.96;96796.18;1716447;82;21601;-55
2022/03/19 07:29:13;;;;;;;52.58;24.92;;;;;;;-0.99;48.08;96788.56;1710222;81;21543;-50
2022/03/19 07:31:41;;;;;;;42.95;25.27;;;;;;;-0.84;47.60;96781.82;1706005;82;21030;-51
2022/03/19 07:34:09;;;;;;;42.95;25.52;;;;;;;-0.77;47.10;96782.90;1692023;82;21058;-50
2022/03/19 07:36:38;;;;;;;45.10;24.43;;;;;;;-0.66;46.98;96783.31;1690118;82;21129;-50
2022/03/19 07:39:06;;;;;;;54.77;27.45;;;;;;;-0.51;46.50;96783.56;1673858;82;21235;-51
2022/03/19 07:41:46;;;;;;;53.65;28.15;;;;;;;-0.35;46.37;96778.38;1670918;82;21058;-50
2022/03/19 07:44:15;;;;;;;45.33;27.22;;;;;;;-0.25;45.97;96776.65;1716340;82;20946;-51
2022/03/19 07:46:42;;;;;;;43.98;26.25;;;;;;;-0.28;45.87;96765.92;1664091;84;21184;-51
2022/03/19 07:49:11;;;;;;;52.83;28.80;;;;;;;-0.28;45.92;96773.22;1651928;85;21115;-51
2022/03/19 07:51:39;;;;;;;67.58;30.65;;;;;;;-0.29;46.10;96775.70;1644570;85;21139;-51
2022/03/19 07:54:06;;;;;;;48.83;27.02;;;;;;;-0.27;46.17;96769.40;1642548;85;21102;-51
2022/03/19 07:56:36;;;;;;;64.32;34.08;;;;;;;-0.13;46.10;96768.59;1650042;85;21091;-52
2022/03/19 07:59:04;;;;;;;57.48;32.60;;;;;;;0.08;46.10;96767.47;1642210;85;21106;-51
2022/03/19 08:01:33;;;;;;;48.98;30.05;;;;;;;0.38;45.72;96768.39;1657779;84;21063;-53
2022/03/19 08:04:00;;;;;;;46.28;27.25;;;;;;;0.60;45.08;96761.81;1652822;85;21166;-52
2022/03/19 08:06:30;;;;;;;52.53;28.07;;;;;;;0.80;44.67;96765.80;1658727;84;21044;-53
2022/03/19 08:08:57;;;;;;;54.77;28.00;;;;;;;0.97;44.36;96762.11;1641434;85;21177;-53
2022/03/19 08:11:25;;;;;;;54.93;28.77;;;;;;;1.10;44.34;96768.56;1645834;85;21142;-51
2022/03/19 08:13:53;;;;;;;51.90;26.62;;;;;;;1.25;44.01;96762.48;1659413;85;21068;-52
2022/03/19 08:16:20;;;;;;;49.03;26.23;;;;;;;1.40;43.52;96757.73;1661501;84;22379;-51
2022/03/19 08:18:47;;;;;;;63.55;29.50;;;;;;;1.55;43.35;96766.55;1654398;84;21039;-53
2022/03/19 08:21:16;;;;;;;52.30;24.67;;;;;;;1.69;42.72;96760.17;1660702;85;21503;-53
2022/03/19 08:23:47;;;;;;;59.70;27.77;;;;;;;1.84;42.46;96758.12;1666905;85;21035;-50
2022/03/19 08:26:15;;;;;;;59.03;27.77;;;;;;;2.04;42.02;96750.38;1662792;84;21058;-53
2022/03/19 08:28:42;;;;;;;47.27;22.05;;;;;;;2.19;42.13;96757.80;1652183;84;21192;-49
2022/03/19 08:31:10;;;;;;;38.75;21.00;;;;;;;2.42;42.08;96752.05;1677616;84;21476;-51
2022/03/19 08:33:38;;;;;;;35.43;20.30;;;;;;;2.65;42.11;96751.16;1658276;85;21539;-52
2022/03/19 08:36:05;;;;;;;32.28;15.03;;;;;;;2.90;41.70;96749.09;1656640;85;21935;-52
2022/03/19 08:41:19;;;;;;;25.62;13.93;;;;;;;3.31;40.09;96737.69;1662382;84;23298;-52
2022/03/19 08:43:46;;;;;;;26.77;13.60;;;;;;;3.43;40.93;96741.09;1666057;85;21070;-51
2022/03/19 08:46:13;;;;;;;19.95;13.05;;;;;;;3.51;40.12;96745.00;1658961;85;21126;-54
2022/03/19 08:48:42;;;;;;;15.53;11.05;;;;;;;3.56;39.79;96739.30;1667949;85;21480;-52
2022/03/19 08:51:44;;;;;;;18.67;11.68;;;;;;;3.59;39.73;96732.34;1659533;85;21134;-53
2022/03/19 08:53:46;;;;;;;26.87;14.90;;;;;;;3.66;39.12;96731.94;1648785;85;21223;-53
2022/03/19 08:56:14;;;;;;;24.25;12.60;;;;;;;3.78;38.78;96730.47;1658004;85;21095;-52
2022/03/19 08:58:43;;;;;;;23.95;12.25;;;;;;;3.89;38.50;96726.03;1659709;85;21114;-52
2022/03/19 09:01:10;;;;;;;104.00;35.52;;;;;;;4.07;38.07;96734.59;1668244;85;21141;-51
2022/03/19 09:03:38;;;;;;;24.67;14.45;;;;;;;4.17;37.51;96732.66;1644138;84;21046;-52
2022/03/19 09:06:05;;;;;;;27.40;16.77;;;;;;;4.13;36.29;96736.69;1656836;84;21610;-53
2022/03/19 09:08:33;;;;;;;21.87;12.37;;;;;;;3.98;36.98;96728.55;1658696;84;21004;-53
2022/03/19 09:11:02;;;;;;;17.95;12.03;;;;;;;3.87;37.90;96728.33;1667611;85;21047;-52
2022/03/19 09:13:30;;;;;;;15.18;10.53;;;;;;;3.90;38.55;96735.77;1671739;85;21039;-51
2022/03/19 09:15:58;;;;;;;13.65;9.45;;;;;;;4.02;38.46;96738.38;1675955;85;21039;-52
2022/03/19 09:18:26;;;;;;;26.52;12.05;;;;;;;4.18;37.54;96735.03;1656709;84;22036;-52
2022/03/19 09:20:53;;;;;;;16.67;12.50;;;;;;;4.24;36.74;96732.23;1644533;87;21083;-53
2022/03/19 09:23:21;;;;;;;16.20;11.22;;;;;;;4.33;36.72;96730.66;1645184;87;21025;-52
2022/03/19 09:25:49;;;;;;;14.40;10.08;;;;;;;4.52;37.92;96730.09;1644806;87;20989;-53
2022/03/19 09:28:17;;;;;;;26.90;13.38;;;;;;;4.75;36.74;96724.69;1644953;87;21068;-54
2022/03/19 09:30:45;;;;;;;15.53;9.78;;;;;;;4.94;36.69;96720.55;1643090;84;21119;-50
2022/03/19 09:33:13;;;;;;;17.05;10.00;;;;;;;5.14;36.86;96716.61;1655774;85;21121;-53
2022/03/19 09:35:41;;;;;;;30.57;12.10;;;;;;;5.33;36.78;96715.38;1650309;84;21138;-52
2022/03/19 09:38:10;;;;;;;17.05;11.30;;;;;;;5.54;36.83;96714.91;1653107;86;21680;-52
2022/03/19 09:40:38;;;;;;;26.20;11.97;;;;;;;5.74;36.25;96721.84;1658013;85;21084;-52
2022/03/19 09:43:06;;;;;;;14.75;9.88;;;;;;;5.81;34.84;96721.99;1641016;85;21997;-52
2022/03/19 09:45:34;;;;;;;19.75;13.83;;;;;;;5.86;34.99;96724.41;1666786;85;21019;-53
2022/03/19 09:48:01;;;;;;;22.37;15.98;;;;;;;5.98;33.36;96722.23;1652346;85;22183;-52
2022/03/19 09:50:29;;;;;;;29.23;18.75;;;;;;;6.20;33.50;96719.22;1653030;85;21017;-52
2022/03/19 09:53:00;;;;;;;17.27;11.30;;;;;;;6.61;34.16;96712.11;1656590;85;21106;-52
2022/03/19 09:55:28;;;;;;;16.02;10.25;;;;;;;7.21;34.25;96716.23;1654775;84;21266;-54
2022/03/19 09:57:56;;;;;;;17.40;11.88;;;;;;;7.65;33.16;96712.30;1631333;85;21007;-50
2022/03/19 10:00:24;;;;;;;16.50;10.05;;;;;;;8.01;31.95;96714.69;1653057;85;21046;-54
2022/03/19 10:03:03;;;;;;;14.00;9.03;;;;;;;8.41;32.29;96710.45;1654745;85;21038;-53
2022/03/19 10:08:38;;;;;;;20.05;10.43;;;;;;;9.02;32.08;96713.19;1662407;84;21240;-53
2022/03/19 10:11:11;;;;;;;12.05;8.83;;;;;;;9.41;31.67;96708.52;1652763;85;21161;-52
2022/03/19 10:13:44;;;;;;;13.80;8.83;;;;;;;9.93;30.60;96707.72;1601807;87;21062;-51
2022/03/19 10:16:24;;;;;;;22.25;8.88;;;;;;;10.28;29.54;96713.17;1668097;85;20975;-52
2022/03/19 10:18:58;;;;;;;13.75;9.60;;;;;;;10.55;28.00;96703.25;1662744;84;21031;-53
2022/03/19 10:21:27;;;;;;;13.77;9.90;;;;;;;10.76;27.63;96706.70;1681279;84;21930;-53
2022/03/19 10:23:58;;;;;;;19.65;10.25;;;;;;;10.87;27.85;96699.77;1635297;87;21728;-50
2022/03/19 10:26:34;;;;;;;10.68;7.72;;;;;;;11.17;28.47;96699.99;1690406;83;21015;-49
2022/03/19 10:29:07;;;;;;;20.17;9.63;;;;;;;11.54;28.55;96700.12;1690538;83;20977;-51
2022/03/19 10:31:44;;;;;;;11.60;7.85;;;;;;;11.85;27.39;96699.08;1693146;83;21033;-50
2022/03/19 10:34:10;;;;;;;10.13;7.97;;;;;;;12.21;27.47;96692.83;1717126;82;21248;-51
2022/03/19 10:36:40;;;;;;;11.65;8.78;;;;;;;12.49;26.57;96700.78;1715183;83;20986;-51
2022/03/19 10:39:19;;;;;;;13.62;8.08;;;;;;;12.64;26.57;96693.31;1715424;82;22179;-52
2022/03/19 10:41:46;;;;;;;20.17;10.20;;;;;;;12.98;25.17;96692.71;1697507;83;21001;-51
2022/03/19 10:44:28;;;;;;;18.57;9.78;;;;;;;13.13;24.91;96691.91;1690270;82;21160;-50
2022/03/19 10:46:58;;;;;;;25.55;10.10;;;;;;;13.40;25.38;96692.09;1685012;83;21394;-54
2022/03/19 10:49:28;;;;;;;9.83;7.72;;;;;;;13.74;25.76;96700.25;1712279;82;21017;-51
2022/03/19 10:51:59;;;;;;;26.10;18.02;;;;;;;13.77;25.34;96693.28;1695725;82;21053;-51
2022/03/19 10:54:26;;;;;;;10.53;7.90;;;;;;;13.74;24.52;96691.95;1705927;82;21586;-53
2022/03/19 10:56:54;;;;;;;9.40;6.80;;;;;;;13.82;23.11;96689.27;1711917;82;21011;-52
2022/03/19 10:59:24;;;;;;;18.82;8.53;;;;;;;13.85;23.34;96682.88;1700741;82;21125;-51
2022/03/19 11:01:51;;;;;;;39.05;11.70;;;;;;;13.95;23.97;96687.44;1705385;83;21007;-52
2022/03/19 11:04:19;;;;;;;25.45;10.70;;;;;;;14.24;23.43;96674.70;1723957;81;21010;-51
2022/03/19 11:06:47;;;;;;;15.35;8.83;;;;;;;14.44;23.65;96677.67;1712310;82;21014;-56
2022/03/19 11:09:15;;;;;;;19.98;8.90;;;;;;;14.69;23.53;96670.44;1708954;83;21113;-54
2022/03/19 11:11:50;;;;;;;27.05;10.95;;;;;;;15.03;22.93;96673.64;1692514;82;21181;-53
2022/03/19 11:14:23;;;;;;;14.15;9.03;;;;;;;15.17;22.93;96666.41;1718676;82;21105;-51
2022/03/19 11:17:27;;;;;;;12.00;7.85;;;;;;;15.46;22.14;96663.80;1718732;82;20967;-51
2022/03/19 11:20:04;;;;;;;15.58;8.65;;;;;;;15.57;21.42;96659.55;1699191;82;21065;-53
2022/03/19 11:22:41;;;;;;;23.65;8.83;;;;;;;15.48;22.29;96659.38;1700823;83;21496;-50
2022/03/19 11:25:20;;;;;;;22.73;12.63;;;;;;;15.98;22.29;96658.34;1693166;82;21169;-51
2022/03/19 11:27:49;;;;;;;14.45;8.83;;;;;;;16.42;22.08;96657.58;1688793;84;21118;-52
2022/03/19 11:30:23;;;;;;;15.72;9.83;;;;;;;16.67;21.50;96648.72;1704430;82;21104;-52
2022/03/19 11:33:18;;;;;;;13.58;7.75;;;;;;;17.01;20.90;96653.08;1674981;84;21040;-51
2022/03/19 11:36:02;;;;;;;16.77;9.03;;;;;;;17.03;20.51;96645.67;1697167;83;21069;-52
2022/03/19 11:38:31;;;;;;;17.77;8.78;;;;;;;16.80;20.46;96650.14;1704005;83;21539;-50
2022/03/19 11:41:00;;;;;;;16.87;8.68;;;;;;;16.49;20.97;96639.30;1680366;83;20968;-51
2022/03/19 11:43:34;;;;;;;16.55;8.85;;;;;;;16.51;21.15;96646.63;1696094;81;20989;-51